createdAt,value
2018-03-04T00:02:09.223Z,-7.80
2018-03-04T00:04:37.275Z,-7.80
2018-03-04T00:07:06.172Z,-7.90
2018-03-04T00:09:35.010Z,-7.90
2018-03-04T00:12:02.691Z,-7.90
2018-03-04T00:14:30.364Z,-7.90
2018-03-04T00:16:58.408Z,-7.90
2018-03-04T00:19:26.545Z,-7.90
2018-03-04T00:21:54.635Z,-7.90
2018-03-04T00:24:22.347Z,-7.90
2018-03-04T00:26:50.413Z,-8.00
2018-03-04T00:29:18.054Z,-8.00
2018-03-04T00:31:46.141Z,-8.00
2018-03-04T00:34:13.835Z,-8.10
2018-03-04T00:36:41.505Z,-8.10
2018-03-04T00:39:09.463Z,-8.10
2018-03-04T00:41:37.531Z,-8.10
2018-03-04T00:44:06.400Z,-8.10
2018-03-04T00:46:34.131Z,-8.20
2018-03-04T00:49:01.943Z,-8.10
2018-03-04T00:51:29.643Z,-8.10
2018-03-04T00:53:57.624Z,-8.10
2018-03-04T00:56:25.682Z,-8.10
2018-03-04T00:58:53.328Z,-8.10
2018-03-04T01:01:20.944Z,-8.10
2018-03-04T01:03:48.817Z,-8.10
2018-03-04T01:06:16.816Z,-8.20
2018-03-04T01:08:44.744Z,-8.20
2018-03-04T01:11:12.409Z,-8.20
2018-03-04T01:13:40.112Z,-8.20
2018-03-04T01:16:07.839Z,-8.20
2018-03-04T01:18:35.845Z,-8.20
2018-03-04T01:21:03.477Z,-8.20
2018-03-04T01:23:31.121Z,-8.20
2018-03-04T01:25:58.764Z,-8.20
2018-03-04T01:28:26.399Z,-8.20
2018-03-04T01:30:54.795Z,-8.30
2018-03-04T01:33:22.428Z,-8.30
2018-03-04T01:35:50.788Z,-8.30
2018-03-04T01:38:18.380Z,-8.30
2018-03-04T01:40:46.776Z,-8.30
2018-03-04T01:43:14.362Z,-8.30
2018-03-04T01:45:41.987Z,-8.40
2018-03-04T01:48:09.592Z,-8.40
2018-03-04T01:50:37.223Z,-8.40
2018-03-04T01:53:04.831Z,-8.40
2018-03-04T01:55:32.449Z,-8.40
2018-03-04T01:58:00.094Z,-8.40
2018-03-04T02:00:27.694Z,-8.50
2018-03-04T02:02:55.341Z,-8.50
2018-03-04T02:05:22.962Z,-8.50
2018-03-04T02:07:50.593Z,-8.50
2018-03-04T02:10:18.182Z,-8.50
2018-03-04T02:12:45.832Z,-8.50
2018-03-04T02:15:14.209Z,-8.60
2018-03-04T02:17:42.619Z,-8.60
2018-03-04T02:20:10.241Z,-8.60
2018-03-04T02:22:38.599Z,-8.60
2018-03-04T02:25:06.223Z,-8.70
2018-03-04T02:27:33.843Z,-8.70
2018-03-04T02:30:02.291Z,-8.80
2018-03-04T02:32:29.889Z,-8.80
2018-03-04T02:34:58.289Z,-8.80
2018-03-04T02:37:25.939Z,-8.80
2018-03-04T02:39:53.539Z,-8.80
2018-03-04T02:42:21.165Z,-8.80
2018-03-04T02:44:48.759Z,-8.80
2018-03-04T02:47:16.403Z,-8.80
2018-03-04T02:49:43.996Z,-8.80
2018-03-04T02:52:11.646Z,-8.80
2018-03-04T02:54:39.238Z,-8.90
2018-03-04T02:57:07.605Z,-8.90
2018-03-04T02:59:35.232Z,-8.90
2018-03-04T03:02:03.097Z,-8.90
2018-03-04T03:04:30.730Z,-9.00
2018-03-04T03:06:58.325Z,-9.00
2018-03-04T03:09:25.966Z,-8.90
2018-03-04T03:11:53.583Z,-9.00
2018-03-04T03:14:21.952Z,-9.00
2018-03-04T03:16:49.584Z,-9.00
2018-03-04T03:19:17.190Z,-9.00
2018-03-04T03:21:45.589Z,-9.00
2018-03-04T03:24:13.194Z,-9.00
2018-03-04T03:26:40.823Z,-9.00
2018-03-04T03:29:08.412Z,-9.00
2018-03-04T03:31:36.037Z,-9.00
2018-03-04T03:34:03.639Z,-9.00
2018-03-04T03:36:31.228Z,-9.10
2018-03-04T03:38:59.630Z,-9.10
2018-03-04T03:41:27.271Z,-9.10
2018-03-04T03:43:55.682Z,-9.10
2018-03-04T03:46:23.261Z,-9.10
2018-03-04T03:48:50.884Z,-9.10
2018-03-04T03:51:18.480Z,-9.10
2018-03-04T03:53:46.115Z,-9.10
2018-03-04T03:56:13.714Z,-9.10
2018-03-04T03:58:41.326Z,-9.20
2018-03-04T04:01:09.117Z,-9.20
2018-03-04T04:03:36.742Z,-9.20
2018-03-04T04:06:04.385Z,-9.30
2018-03-04T04:08:32.755Z,-9.30
2018-03-04T04:11:01.214Z,-9.30
2018-03-04T04:13:28.817Z,-9.30
2018-03-04T04:15:56.421Z,-9.30
2018-03-04T04:18:24.043Z,-9.30
2018-03-04T04:20:51.636Z,-9.30
2018-03-04T04:23:19.270Z,-9.30
2018-03-04T04:25:46.876Z,-9.40
2018-03-04T04:28:14.572Z,-9.30
2018-03-04T04:30:42.937Z,-9.40
2018-03-04T04:33:11.300Z,-9.40
2018-03-04T04:35:38.931Z,-9.40
2018-03-04T04:38:06.662Z,-9.40
2018-03-04T04:40:34.290Z,-9.40
2018-03-04T04:43:02.120Z,-9.40
2018-03-04T04:45:29.748Z,-9.40
2018-03-04T04:47:57.346Z,-9.40
2018-03-04T04:50:24.981Z,-9.40
2018-03-04T04:52:52.566Z,-9.40
2018-03-04T04:55:20.184Z,-9.40
2018-03-04T04:57:47.809Z,-9.50
2018-03-04T05:00:15.404Z,-9.50
2018-03-04T05:02:43.066Z,-9.50
2018-03-04T05:05:10.686Z,-9.50
2018-03-04T05:07:38.343Z,-9.50
2018-03-04T05:10:05.953Z,-9.50
2018-03-04T05:12:33.585Z,-9.50
2018-03-04T05:15:01.949Z,-9.40
2018-03-04T05:17:29.542Z,-9.50
2018-03-04T05:19:57.163Z,-9.40
2018-03-04T05:22:24.773Z,-9.40
2018-03-04T05:24:52.426Z,-9.40
2018-03-04T05:27:20.044Z,-9.40
2018-03-04T05:29:47.664Z,-9.40
2018-03-04T05:32:15.244Z,-9.40
2018-03-04T05:34:42.879Z,-9.40
2018-03-04T05:37:10.572Z,-9.40
2018-03-04T05:39:38.180Z,-9.40
2018-03-04T05:42:06.637Z,-9.40
2018-03-04T05:44:34.229Z,-9.40
2018-03-04T05:47:01.848Z,-9.40
2018-03-04T05:49:29.452Z,-9.40
2018-03-04T05:51:57.101Z,-9.40
2018-03-04T05:54:25.455Z,-9.30
2018-03-04T05:56:53.871Z,-9.30
2018-03-04T05:59:21.454Z,-9.30
2018-03-04T06:01:49.065Z,-9.20
2018-03-04T06:04:17.457Z,-9.10
2018-03-04T06:06:45.070Z,-9.10
2018-03-04T06:09:12.705Z,-9.00
2018-03-04T06:11:40.300Z,-8.80
2018-03-04T06:14:07.915Z,-8.80
2018-03-04T06:16:35.549Z,-8.60
2018-03-04T06:19:03.976Z,-8.40
2018-03-04T06:21:31.676Z,-8.40
2018-03-04T06:23:59.289Z,-8.30
2018-03-04T06:26:26.939Z,-8.30
2018-03-04T06:28:54.557Z,-8.10
2018-03-04T06:31:22.137Z,-8.10
2018-03-04T06:33:50.519Z,-7.90
2018-03-04T06:36:18.887Z,-7.80
2018-03-04T06:38:47.285Z,-7.80
2018-03-04T06:41:14.870Z,-7.80
2018-03-04T06:43:42.502Z,-7.70
2018-03-04T06:46:10.092Z,-7.70
2018-03-04T06:48:37.751Z,-7.70
2018-03-04T06:51:05.377Z,-7.60
2018-03-04T06:53:33.008Z,-7.50
2018-03-04T06:56:00.623Z,-7.50
2018-03-04T06:58:28.257Z,-7.40
2018-03-04T07:00:55.900Z,-7.40
2018-03-04T07:03:24.302Z,-7.30
2018-03-04T07:05:51.945Z,-7.30
2018-03-04T07:08:20.362Z,-7.20
2018-03-04T07:10:47.986Z,-7.20
2018-03-04T07:13:16.436Z,-7.10
2018-03-04T07:15:44.102Z,-7.20
2018-03-04T07:18:11.906Z,-7.00
2018-03-04T07:20:39.573Z,-7.00
2018-03-04T07:23:07.190Z,-6.90
2018-03-04T07:25:34.870Z,-6.80
2018-03-04T07:28:03.257Z,-6.70
2018-03-04T07:30:31.680Z,-6.60
2018-03-04T07:33:00.082Z,-6.60
2018-03-04T07:35:27.749Z,-6.60
2018-03-04T07:37:55.370Z,-6.40
2018-03-04T07:40:22.989Z,-6.40
2018-03-04T07:42:51.404Z,-6.40
2018-03-04T07:45:19.014Z,-6.40
2018-03-04T07:47:46.783Z,-6.30
2018-03-04T07:50:14.438Z,-6.20
2018-03-04T07:52:42.081Z,-6.20
2018-03-04T07:55:09.728Z,-6.10
2018-03-04T07:57:37.405Z,-6.10
2018-03-04T08:00:05.095Z,-5.90
2018-03-04T08:02:32.733Z,-5.80
2018-03-04T08:05:00.402Z,-5.70
2018-03-04T08:07:28.980Z,-5.60
2018-03-04T08:09:56.743Z,-5.40
2018-03-04T08:12:24.370Z,-5.20
2018-03-04T08:14:52.041Z,-5.00
2018-03-04T08:17:19.665Z,-4.80
2018-03-04T08:19:47.292Z,-4.70
2018-03-04T08:22:14.951Z,-4.50
2018-03-04T08:24:42.596Z,-4.40
2018-03-04T08:27:22.054Z,-4.30
2018-03-04T08:29:53.100Z,-4.10
2018-03-04T08:32:21.646Z,-3.80
2018-03-04T08:34:49.323Z,-3.80
2018-03-04T08:37:17.067Z,-3.80
2018-03-04T08:39:44.716Z,-3.50
2018-03-04T08:42:12.352Z,-3.50
2018-03-04T08:44:41.797Z,-3.40
2018-03-04T08:47:09.473Z,-3.40
2018-03-04T08:49:37.588Z,-3.40
2018-03-04T08:52:05.243Z,-3.20
2018-03-04T08:54:33.632Z,-3.00
2018-03-04T08:57:01.271Z,-3.00
2018-03-04T08:59:29.713Z,-2.50
2018-03-04T09:01:57.337Z,-2.50
2018-03-04T09:04:25.096Z,-2.50
2018-03-04T09:06:52.780Z,-2.50
2018-03-04T09:09:21.205Z,-2.50
2018-03-04T09:11:48.909Z,-2.40
2018-03-04T09:14:16.577Z,-2.40
2018-03-04T09:16:44.269Z,-2.20
2018-03-04T09:19:12.735Z,-2.20
2018-03-04T09:21:40.390Z,-2.20
2018-03-04T09:24:08.054Z,-2.10
2018-03-04T09:26:35.690Z,-2.00
2018-03-04T09:29:03.760Z,-1.80
2018-03-04T09:31:31.388Z,-1.70
2018-03-04T09:33:59.809Z,-1.40
2018-03-04T09:36:27.431Z,-1.40
2018-03-04T09:38:55.855Z,-1.10
2018-03-04T09:41:23.466Z,-1.10
2018-03-04T09:43:51.856Z,-0.60
2018-03-04T09:46:19.516Z,-0.60
2018-03-04T09:48:47.886Z,-0.10
2018-03-04T09:51:16.310Z,0.10
2018-03-04T09:53:43.927Z,0.00
2018-03-04T09:56:12.357Z,0.60
2018-03-04T09:58:39.977Z,0.60
2018-03-04T10:01:08.361Z,1.00
2018-03-04T10:03:36.774Z,1.10
2018-03-04T10:06:04.401Z,1.10
2018-03-04T10:08:32.016Z,1.20
2018-03-04T10:10:59.614Z,1.50
2018-03-04T10:13:28.004Z,1.80
2018-03-04T10:15:55.624Z,1.80
2018-03-04T10:18:23.276Z,2.00
2018-03-04T10:20:50.882Z,2.20
2018-03-04T10:23:20.059Z,2.50
2018-03-04T10:25:48.445Z,2.60
2018-03-04T10:28:16.980Z,2.80
2018-03-04T10:30:44.602Z,2.80
2018-03-04T10:33:12.273Z,3.00
2018-03-04T10:35:39.912Z,3.10
2018-03-04T10:38:08.395Z,3.40
2018-03-04T10:40:36.777Z,3.50
2018-03-04T10:43:05.440Z,3.60
2018-03-04T10:45:33.831Z,3.80
2018-03-04T10:48:02.689Z,3.70
2018-03-04T10:50:30.292Z,3.70
2018-03-04T10:53:00.377Z,3.90
2018-03-04T10:55:28.880Z,3.90
2018-03-04T10:57:56.529Z,3.80
2018-03-04T11:00:24.965Z,4.10
2018-03-04T11:02:52.640Z,4.10
2018-03-04T11:05:20.454Z,4.30
2018-03-04T11:07:48.947Z,4.60
2018-03-04T11:10:21.307Z,4.60
2018-03-04T11:12:49.752Z,4.70
2018-03-04T11:18:13.061Z,4.80
2018-03-04T11:20:40.687Z,4.90
2018-03-04T11:23:09.421Z,5.10
2018-03-04T11:25:37.107Z,5.20
2018-03-04T11:28:05.800Z,4.90
2018-03-04T11:30:33.445Z,5.00
2018-03-04T11:33:03.948Z,5.30
2018-03-04T11:35:31.806Z,5.40
2018-03-04T11:38:00.240Z,5.30
2018-03-04T11:40:28.064Z,5.30
2018-03-04T11:42:55.937Z,5.30
2018-03-04T11:45:23.610Z,5.60
2018-03-04T11:47:51.240Z,5.50
2018-03-04T11:50:18.832Z,5.50
2018-03-04T11:52:46.696Z,5.60
2018-03-04T11:55:15.083Z,5.60
2018-03-04T11:57:43.853Z,5.60
2018-03-04T12:00:11.482Z,5.70
2018-03-04T12:02:39.129Z,5.80
2018-03-04T12:05:10.603Z,6.00
2018-03-04T12:07:38.324Z,6.20
2018-03-04T12:10:05.960Z,6.30
2018-03-04T12:12:33.610Z,6.40
2018-03-04T12:15:02.052Z,6.30
2018-03-04T12:17:29.688Z,6.30
2018-03-04T12:19:57.323Z,6.30
2018-03-04T12:22:24.974Z,6.30
2018-03-04T12:24:52.772Z,6.40
2018-03-04T12:27:20.403Z,6.40
2018-03-04T12:29:48.131Z,6.40
2018-03-04T12:32:15.769Z,6.60
2018-03-04T12:34:43.401Z,6.70
2018-03-04T12:37:11.710Z,6.80
2018-03-04T12:39:39.361Z,7.00
2018-03-04T12:42:07.790Z,6.90
2018-03-04T12:44:35.444Z,6.90
2018-03-04T12:47:03.241Z,7.10
2018-03-04T12:49:30.856Z,7.30
2018-03-04T12:51:58.525Z,7.30
2018-03-04T12:54:26.182Z,7.40
2018-03-04T12:56:53.838Z,7.60
2018-03-04T12:59:21.496Z,7.40
2018-03-04T13:01:49.142Z,7.50
2018-03-04T13:04:17.585Z,7.40
2018-03-04T13:06:45.975Z,7.50
2018-03-04T13:09:13.649Z,7.50
2018-03-04T13:11:41.429Z,7.50
2018-03-04T13:14:09.864Z,7.80
2018-03-04T13:16:38.423Z,7.80
2018-03-04T13:19:06.782Z,7.90
2018-03-04T13:21:34.660Z,7.70
2018-03-04T13:24:02.424Z,7.70
2018-03-04T13:26:30.054Z,7.90
2018-03-04T13:28:58.433Z,8.00
2018-03-04T13:31:26.892Z,8.00
2018-03-04T13:33:54.479Z,8.00
2018-03-04T13:36:22.066Z,8.00
2018-03-04T13:38:49.712Z,8.10
2018-03-04T13:41:17.334Z,8.10
2018-03-04T13:43:44.964Z,8.20
2018-03-04T13:46:12.554Z,8.10
2018-03-04T13:48:40.172Z,8.30
2018-03-04T13:51:07.772Z,8.10
2018-03-04T13:53:35.392Z,8.10
2018-03-04T13:56:03.102Z,8.10
2018-03-04T13:58:30.737Z,8.10
2018-03-04T14:00:58.314Z,8.00
2018-03-04T14:03:25.922Z,8.10
2018-03-04T14:05:53.541Z,7.90
2018-03-04T14:08:21.120Z,8.10
2018-03-04T14:10:49.504Z,8.00
2018-03-04T14:13:17.852Z,8.10
2018-03-04T14:15:45.480Z,8.00
2018-03-04T14:18:13.060Z,8.10
2018-03-04T14:20:40.714Z,8.00
2018-03-04T14:23:08.372Z,8.00
2018-03-04T14:25:35.981Z,8.00
2018-03-04T14:28:03.738Z,8.10
2018-03-04T14:30:32.097Z,8.00
2018-03-04T14:32:59.721Z,8.00
2018-03-04T14:35:27.308Z,8.10
2018-03-04T14:37:54.908Z,8.00
2018-03-04T14:40:22.538Z,7.90
2018-03-04T14:42:50.136Z,7.80
2018-03-04T14:45:17.752Z,7.80
2018-03-04T14:47:45.357Z,7.60
2018-03-04T14:50:12.982Z,7.60
2018-03-04T14:52:47.243Z,7.70
2018-03-04T14:55:14.923Z,7.80
2018-03-04T14:57:42.528Z,7.60
2018-03-04T15:00:10.889Z,7.70
2018-03-04T15:02:38.500Z,7.70
2018-03-04T15:05:06.126Z,7.80
2018-03-04T15:07:34.552Z,7.90
2018-03-04T15:10:02.294Z,7.90
2018-03-04T15:12:29.949Z,8.00
2018-03-04T15:14:57.550Z,8.00
2018-03-04T15:17:25.148Z,7.90
2018-03-04T15:19:53.583Z,8.10
2018-03-04T15:22:21.250Z,8.10
2018-03-04T15:24:48.937Z,8.50
2018-03-04T15:27:17.334Z,8.80
2018-03-04T15:29:45.816Z,9.30
2018-03-04T15:32:13.442Z,9.30
2018-03-04T15:34:41.084Z,9.60
2018-03-04T15:37:08.684Z,9.90
2018-03-04T15:39:37.078Z,10.10
2018-03-04T15:42:04.774Z,10.10
2018-03-04T15:44:32.419Z,10.40
2018-03-04T15:47:00.158Z,10.20
2018-03-04T15:49:28.541Z,9.90
2018-03-04T15:51:56.199Z,9.90
2018-03-04T15:54:24.565Z,9.90
2018-03-04T15:56:52.931Z,9.90
2018-03-04T15:59:20.545Z,9.90
2018-03-04T16:01:48.143Z,9.60
2018-03-04T16:04:15.784Z,9.40
2018-03-04T16:06:43.389Z,9.10
2018-03-04T16:09:11.793Z,8.60
2018-03-04T16:11:39.442Z,8.60
2018-03-04T16:14:07.090Z,8.50
2018-03-04T16:16:35.934Z,7.90
2018-03-04T16:19:03.533Z,7.80
2018-03-04T16:21:31.936Z,7.00
2018-03-04T16:23:59.943Z,7.00
2018-03-04T16:26:27.567Z,6.50
2018-03-04T16:28:55.290Z,6.20
2018-03-04T16:31:23.170Z,6.00
2018-03-04T16:33:51.662Z,5.70
2018-03-04T16:36:20.166Z,5.50
2018-03-04T16:38:47.890Z,5.50
2018-03-04T16:41:15.623Z,5.30
2018-03-04T16:43:43.397Z,5.20
2018-03-04T16:46:10.989Z,4.80
2018-03-04T16:48:39.406Z,4.40
2018-03-04T16:51:07.165Z,4.40
2018-03-04T16:53:35.666Z,4.30
2018-03-04T16:56:03.266Z,4.20
2018-03-04T16:58:31.651Z,3.90
2018-03-04T17:00:59.303Z,3.90
2018-03-04T17:03:27.686Z,3.50
2018-03-04T17:05:56.128Z,3.40
2018-03-04T17:08:23.723Z,3.30
2018-03-04T17:10:55.981Z,3.10
2018-03-04T17:13:29.634Z,3.00
2018-03-04T17:16:02.761Z,2.90
2018-03-04T17:18:39.046Z,2.90
2018-03-04T17:21:10.192Z,2.80
2018-03-04T17:23:42.842Z,2.60
2018-03-04T17:26:10.980Z,2.60
2018-03-04T17:28:38.641Z,2.60
2018-03-04T17:31:06.468Z,2.50
2018-03-04T17:33:35.764Z,2.30
2018-03-04T17:36:04.245Z,2.30
2018-03-04T17:38:32.678Z,2.30
2018-03-04T17:41:00.284Z,2.20
2018-03-04T17:43:28.031Z,2.00
2018-03-04T17:45:57.896Z,2.00
2018-03-04T17:48:26.574Z,2.00
2018-03-04T17:51:14.653Z,1.90
2018-03-04T17:53:55.670Z,1.80
2018-03-04T17:56:23.426Z,1.70
2018-03-04T17:58:51.090Z,1.60
2018-03-04T18:01:18.721Z,1.50
2018-03-04T18:03:46.315Z,1.50
2018-03-04T18:06:13.928Z,1.50
2018-03-04T18:08:41.625Z,1.40
2018-03-04T18:11:10.093Z,1.20
2018-03-04T18:13:37.748Z,1.20
2018-03-04T18:16:05.393Z,1.20
2018-03-04T18:18:33.110Z,1.10
2018-03-04T18:21:00.762Z,1.10
2018-03-04T18:23:28.504Z,1.00
2018-03-04T18:25:56.137Z,1.00
2018-03-04T18:28:23.762Z,0.90
2018-03-04T18:30:52.738Z,0.80
2018-03-04T18:33:51.181Z,0.80
2018-03-04T18:36:19.915Z,0.70
2018-03-04T18:38:47.510Z,0.70
2018-03-04T18:41:15.878Z,0.70
2018-03-04T18:43:44.320Z,0.50
2018-03-04T18:46:11.945Z,0.50
2018-03-04T18:48:39.560Z,0.50
2018-03-04T18:51:07.181Z,0.40
2018-03-04T18:53:34.859Z,0.30
2018-03-04T18:56:02.705Z,0.30
2018-03-04T18:58:30.284Z,0.20
2018-03-04T19:00:57.944Z,0.20
2018-03-04T19:03:25.552Z,0.20
2018-03-04T19:05:53.955Z,0.10
2018-03-04T19:08:21.537Z,0.10
2018-03-04T19:10:49.177Z,0.10
2018-03-04T19:13:16.758Z,0.00
2018-03-04T19:15:44.346Z,0.00
2018-03-04T19:18:11.953Z,-0.10
2018-03-04T19:20:39.536Z,-0.10
2018-03-04T19:23:07.927Z,-0.10
2018-03-04T19:25:35.535Z,-0.10
2018-03-04T19:28:03.222Z,-0.10
2018-03-04T19:30:30.819Z,-0.20
2018-03-04T19:32:58.462Z,-0.20
2018-03-04T19:35:26.101Z,-0.30
2018-03-04T19:37:54.078Z,-0.40
2018-03-04T19:40:21.772Z,-0.40
2018-03-04T19:42:49.378Z,-0.40
2018-03-04T19:45:17.009Z,-0.50
2018-03-04T19:47:45.406Z,-0.60
2018-03-04T19:50:12.992Z,-0.60
2018-03-04T19:52:40.614Z,-0.60
2018-03-04T19:55:08.998Z,-0.60
2018-03-04T19:57:37.405Z,-0.70
2018-03-04T20:00:05.156Z,-0.70
2018-03-04T20:02:33.598Z,-0.70
2018-03-04T20:05:02.424Z,-0.80
2018-03-04T20:07:30.067Z,-0.80
2018-03-04T20:09:58.449Z,-1.00
2018-03-04T20:12:26.069Z,-1.00
2018-03-04T20:14:53.694Z,-0.90
2018-03-04T20:17:21.283Z,-1.00
2018-03-04T20:19:48.924Z,-1.00
2018-03-04T20:22:16.556Z,-1.00
2018-03-04T20:24:44.144Z,-1.10
2018-03-04T20:27:11.800Z,-1.10
2018-03-04T20:29:39.400Z,-1.10
2018-03-04T20:32:07.034Z,-1.10
2018-03-04T20:34:35.513Z,-1.20
2018-03-04T20:37:03.381Z,-1.20
2018-03-04T20:39:31.195Z,-1.30
2018-03-04T20:41:59.800Z,-1.20
2018-03-04T20:44:27.629Z,-1.30
2018-03-04T20:46:55.997Z,-1.30
2018-03-04T20:49:23.627Z,-1.30
2018-03-04T20:51:51.209Z,-1.20
2018-03-04T20:54:18.862Z,-1.30
2018-03-04T20:56:47.445Z,-1.30
2018-03-04T20:59:15.038Z,-1.30
2018-03-04T21:01:43.427Z,-1.30
2018-03-04T21:04:11.793Z,-1.30
2018-03-04T21:06:40.234Z,-1.40
2018-03-04T21:09:07.885Z,-1.40
2018-03-04T21:11:35.539Z,-1.30
2018-03-04T21:14:03.131Z,-1.40
2018-03-04T21:16:30.747Z,-1.40
2018-03-04T21:18:58.907Z,-1.50
2018-03-04T21:21:26.502Z,-1.50
2018-03-04T21:23:54.110Z,-1.50
2018-03-04T21:26:22.468Z,-1.60
2018-03-04T21:28:50.113Z,-1.60
2018-03-04T21:31:17.707Z,-1.60
2018-03-04T21:33:46.060Z,-1.60
2018-03-04T21:36:13.733Z,-1.60
2018-03-04T21:38:41.333Z,-1.60
2018-03-04T21:41:08.961Z,-1.60
2018-03-04T21:43:37.667Z,-1.70
2018-03-04T21:46:05.342Z,-1.70
2018-03-04T21:48:32.987Z,-1.70
2018-03-04T21:51:01.354Z,-1.70
2018-03-04T21:53:29.759Z,-1.70
2018-03-04T21:55:57.344Z,-1.70
2018-03-04T21:58:24.949Z,-1.80
2018-03-04T22:00:53.332Z,-1.80
2018-03-04T22:03:21.777Z,-1.90
2018-03-04T22:05:49.392Z,-1.90
2018-03-04T22:08:17.185Z,-1.90
2018-03-04T22:10:44.827Z,-1.90
2018-03-04T22:13:13.860Z,-1.90
2018-03-04T22:15:42.578Z,-1.90
2018-03-04T22:18:11.159Z,-1.90
2018-03-04T22:20:39.511Z,-1.90
2018-03-04T22:23:07.715Z,-1.90
2018-03-04T22:25:35.394Z,-1.90
2018-03-04T22:28:03.036Z,-1.90
2018-03-04T22:30:31.391Z,-1.90
2018-03-04T22:32:58.996Z,-1.90
2018-03-04T22:35:26.631Z,-1.90
2018-03-04T22:37:54.248Z,-2.00
2018-03-04T22:40:22.849Z,-2.00
2018-03-04T22:42:50.426Z,-2.10
2018-03-04T22:45:18.883Z,-2.10
2018-03-04T22:47:46.601Z,-2.10
2018-03-04T22:50:14.204Z,-2.10
2018-03-04T22:52:41.823Z,-2.10
2018-03-04T22:55:10.115Z,-2.10
2018-03-04T22:57:37.731Z,-2.20
2018-03-04T23:00:06.109Z,-2.20
2018-03-04T23:02:34.506Z,-2.10
2018-03-04T23:05:02.339Z,-2.20
2018-03-04T23:07:29.923Z,-2.20
2018-03-04T23:09:58.595Z,-2.20
2018-03-04T23:12:27.066Z,-2.30
2018-03-04T23:14:54.941Z,-2.30
2018-03-04T23:17:23.552Z,-2.30
2018-03-04T23:19:51.168Z,-2.30
2018-03-04T23:22:18.919Z,-2.30
2018-03-04T23:24:46.561Z,-2.30
2018-03-04T23:27:14.316Z,-2.30
2018-03-04T23:29:41.939Z,-2.30
2018-03-04T23:32:10.587Z,-2.30
2018-03-04T23:34:38.171Z,-2.30
2018-03-04T23:37:06.683Z,-2.40
2018-03-04T23:39:34.267Z,-2.40
2018-03-04T23:42:01.911Z,-2.40
2018-03-04T23:44:29.496Z,-2.40
2018-03-04T23:46:57.118Z,-2.40
2018-03-04T23:49:24.758Z,-2.40
2018-03-04T23:51:53.140Z,-2.40
2018-03-04T23:54:21.516Z,-2.40
2018-03-04T23:56:49.892Z,-2.40
2018-03-04T23:59:18.277Z,-2.40
